Urla, Turkey
Current Conditions -  °F | °C
As of 8:50 PM on Monday 24 Nov 2014 (Local Time) from LTBJ Reporting Station
Clear Clear  
Wind Chill: 50°   Ceiling: Unl
Heat Index: 50°   Visibility: 6mi
Dew Point: 37°   Wind: 15mph
Humidity: 62%   Direction: 360°N
Pressure: 30.06"   Gusts: NA
Location:  38.33°N, 26.76°E
Report Text: LTBJ 241750Z 36013KT CAVOK 10/03 Q1018 NOSIG
Loading
Personal Weather Stations






























Interactive Weather Map New forecast layout! Learn more

10-Day Weather Forecast

Advertisements
Track Severe Weather on mobile